BEL3KL EBBR-EDDH
Flight info
| Callsign | BEL3KL |
|---|---|
| Flight time | 0h 59m |
| Altitude | 33000 |
| Route | NIK DCT NEPTU DCT TENLI DCT RIBSO RIBSO7A |
| Aircraft | A320/M-DE3FGHIJ1LORVWY/H |
Departure
| Time | 2026-05-07 19:20 |
|---|---|
| Airport | Brussels Airport (EBBR) |
Arrival
| Time | 2026-05-07 20:19 |
|---|---|
| Airport | Hamburg Helmut Schmidt Airport (EDDH) |
| Time | Latitude | Longitude | Altitude | Speed | Heading |
|---|---|---|---|---|---|
| 2026-05-07 18:31 | 50.90414 | 4.49046 | 121 ft | 0 kts | 335° |
| 2026-05-07 19:06 | 50.90412 | 4.49048 | 121 ft | 2 kts | 335° |
| 2026-05-07 19:06 | 50.90376 | 4.49069 | 118 ft | 3 kts | 345° |
| 2026-05-07 19:06 | 50.90357 | 4.49076 | 119 ft | 3 kts | 357° |
| 2026-05-07 19:07 | 50.90338 | 4.49074 | 120 ft | 3 kts | 25° |
| 2026-05-07 19:07 | 50.90327 | 4.49062 | 120 ft | 1 kts | 64° |
| 2026-05-07 19:07 | 50.90326 | 4.49060 | 120 ft | 0 kts | 65° |
| 2026-05-07 19:09 | 50.90329 | 4.49069 | 120 ft | 6 kts | 65° |
| 2026-05-07 19:09 | 50.90350 | 4.49143 | 124 ft | 7 kts | 65° |
| 2026-05-07 19:09 | 50.90369 | 4.49207 | 122 ft | 7 kts | 66° |
| 2026-05-07 19:09 | 50.90400 | 4.49316 | 121 ft | 13 kts | 65° |
| 2026-05-07 19:10 | 50.90443 | 4.49453 | 122 ft | 15 kts | 51° |
| 2026-05-07 19:10 | 50.90540 | 4.49511 | 122 ft | 16 kts | 14° |
| 2026-05-07 19:10 | 50.90654 | 4.49556 | 121 ft | 18 kts | 14° |
| 2026-05-07 19:10 | 50.90728 | 4.49587 | 124 ft | 0 kts | 14° |
| 2026-05-07 19:11 | 50.90729 | 4.49587 | 124 ft | 1 kts | 14° |
| 2026-05-07 19:12 | 50.90793 | 4.49613 | 124 ft | 14 kts | 14° |
| 2026-05-07 19:12 | 50.90887 | 4.49661 | 120 ft | 14 kts | 38° |
| 2026-05-07 19:12 | 50.90929 | 4.49776 | 123 ft | 10 kts | 62° |
| 2026-05-07 19:12 | 50.90981 | 4.49858 | 122 ft | 12 kts | 37° |
| 2026-05-07 19:13 | 50.90993 | 4.49872 | 119 ft | 0 kts | 36° |
| 2026-05-07 19:14 | 50.91002 | 4.49882 | 117 ft | 0 kts | 32° |
| 2026-05-07 19:15 | 50.91005 | 4.49884 | 117 ft | 3 kts | 32° |
| 2026-05-07 19:15 | 50.91030 | 4.49904 | 118 ft | 0 kts | 25° |
| 2026-05-07 19:16 | 50.91032 | 4.49905 | 119 ft | 3 kts | 25° |
| 2026-05-07 19:17 | 50.91115 | 4.49939 | 120 ft | 16 kts | 343° |
| 2026-05-07 19:17 | 50.91125 | 4.49839 | 118 ft | 0 kts | 243° |
| 2026-05-07 19:18 | 50.91125 | 4.49838 | 118 ft | 1 kts | 243° |
| 2026-05-07 19:19 | 50.91102 | 4.49761 | 118 ft | 33 kts | 245° |
| 2026-05-07 19:19 | 50.90901 | 4.49061 | 117 ft | 102 kts | 245° |
| 2026-05-07 19:19 | 50.90372 | 4.47228 | 126 ft | 170 kts | 245° |
| 2026-05-07 19:19 | 50.89895 | 4.45532 | 751 ft | 165 kts | 246° |
| 2026-05-07 19:20 | 50.89591 | 4.43782 | 1379 ft | 167 kts | 279° |
| 2026-05-07 19:20 | 50.89888 | 4.42648 | 1773 ft | 167 kts | 315° |
| 2026-05-07 19:20 | 50.90851 | 4.41746 | 2362 ft | 165 kts | 338° |
| 2026-05-07 19:20 | 50.91892 | 4.40946 | 2914 ft | 167 kts | 334° |
| 2026-05-07 19:21 | 50.92926 | 4.40069 | 3423 ft | 173 kts | 333° |
| 2026-05-07 19:21 | 50.94051 | 4.39086 | 3664 ft | 195 kts | 332° |
| 2026-05-07 19:21 | 50.95291 | 4.37983 | 3900 ft | 218 kts | 332° |
| 2026-05-07 19:21 | 50.96669 | 4.36743 | 4209 ft | 239 kts | 331° |
| 2026-05-07 19:22 | 50.98187 | 4.35365 | 4618 ft | 261 kts | 331° |
| 2026-05-07 19:22 | 50.99789 | 4.33901 | 5358 ft | 269 kts | 330° |
| 2026-05-07 19:22 | 51.01425 | 4.32417 | 6210 ft | 273 kts | 330° |
| 2026-05-07 19:22 | 51.03097 | 4.30937 | 7044 ft | 276 kts | 330° |
| 2026-05-07 19:23 | 51.04796 | 4.29452 | 7858 ft | 279 kts | 330° |
| 2026-05-07 19:23 | 51.06489 | 4.27983 | 8678 ft | 283 kts | 330° |
| 2026-05-07 19:23 | 51.08232 | 4.26479 | 9511 ft | 286 kts | 330° |
| 2026-05-07 19:23 | 51.09993 | 4.24969 | 10262 ft | 292 kts | 330° |
| 2026-05-07 19:24 | 51.11855 | 4.23374 | 10490 ft | 316 kts | 330° |
| 2026-05-07 19:24 | 51.13858 | 4.21657 | 10781 ft | 334 kts | 330° |
| 2026-05-07 19:24 | 51.15934 | 4.19878 | 11394 ft | 341 kts | 330° |
| 2026-05-07 19:24 | 51.18043 | 4.18072 | 12092 ft | 345 kts | 330° |
| 2026-05-07 19:25 | 51.20175 | 4.16251 | 12797 ft | 349 kts | 330° |
| 2026-05-07 19:25 | 51.22347 | 4.14399 | 13500 ft | 353 kts | 330° |
| 2026-05-07 19:25 | 51.24486 | 4.12580 | 14139 ft | 357 kts | 330° |
| 2026-05-07 19:25 | 51.26693 | 4.10705 | 14769 ft | 360 kts | 330° |
| 2026-05-07 19:26 | 51.28920 | 4.08808 | 15396 ft | 363 kts | 330° |
| 2026-05-07 19:26 | 51.31168 | 4.06893 | 16022 ft | 366 kts | 330° |
| 2026-05-07 19:26 | 51.33394 | 4.04997 | 16629 ft | 369 kts | 330° |
| 2026-05-07 19:26 | 51.35670 | 4.03060 | 17237 ft | 372 kts | 330° |
| 2026-05-07 19:27 | 51.38006 | 4.01195 | 17854 ft | 376 kts | 338° |
| 2026-05-07 19:27 | 51.40571 | 4.00311 | 18425 ft | 382 kts | 356° |
| 2026-05-07 19:27 | 51.43224 | 4.00815 | 18938 ft | 388 kts | 16° |
| 2026-05-07 19:27 | 51.45653 | 4.02744 | 19434 ft | 393 kts | 36° |
| 2026-05-07 19:28 | 51.47557 | 4.05833 | 19932 ft | 397 kts | 51° |
| 2026-05-07 19:28 | 51.49276 | 4.09352 | 20446 ft | 401 kts | 51° |
| 2026-05-07 19:28 | 51.50999 | 4.12900 | 20967 ft | 404 kts | 52° |
| 2026-05-07 19:28 | 51.52730 | 4.16472 | 21489 ft | 407 kts | 51° |
| 2026-05-07 19:29 | 51.54464 | 4.20042 | 21989 ft | 410 kts | 51° |
| 2026-05-07 19:29 | 51.56230 | 4.23673 | 22487 ft | 413 kts | 51° |
| 2026-05-07 19:29 | 51.58015 | 4.27340 | 22961 ft | 417 kts | 51° |
| 2026-05-07 19:29 | 51.59809 | 4.31030 | 23421 ft | 420 kts | 51° |
| 2026-05-07 19:30 | 51.61618 | 4.34758 | 23834 ft | 423 kts | 51° |
| 2026-05-07 19:30 | 51.63412 | 4.38462 | 24039 ft | 425 kts | 51° |
| 2026-05-07 19:30 | 51.65257 | 4.42280 | 24411 ft | 428 kts | 51° |
| 2026-05-07 19:30 | 51.67067 | 4.46038 | 24795 ft | 430 kts | 51° |
| 2026-05-07 19:31 | 51.68906 | 4.49860 | 25166 ft | 432 kts | 51° |
| 2026-05-07 19:31 | 51.70757 | 4.53704 | 25527 ft | 434 kts | 51° |
| 2026-05-07 19:31 | 51.72623 | 4.57580 | 25881 ft | 437 kts | 52° |
| 2026-05-07 19:31 | 51.74463 | 4.61412 | 26240 ft | 438 kts | 52° |
| 2026-05-07 19:32 | 51.76333 | 4.65319 | 26586 ft | 441 kts | 52° |
| 2026-05-07 19:32 | 51.78220 | 4.69270 | 26930 ft | 443 kts | 52° |
| 2026-05-07 19:32 | 51.80104 | 4.73224 | 27260 ft | 445 kts | 52° |
| 2026-05-07 19:32 | 51.81977 | 4.77154 | 27588 ft | 447 kts | 52° |
| 2026-05-07 19:33 | 51.83887 | 4.81164 | 27911 ft | 449 kts | 52° |
| 2026-05-07 19:33 | 51.85802 | 4.85188 | 28226 ft | 451 kts | 52° |
| 2026-05-07 19:33 | 51.87724 | 4.89235 | 28535 ft | 453 kts | 52° |
| 2026-05-07 19:33 | 51.89651 | 4.93299 | 28836 ft | 455 kts | 52° |
| 2026-05-07 19:34 | 51.91585 | 4.97385 | 29134 ft | 457 kts | 52° |
| 2026-05-07 19:34 | 51.93500 | 5.01438 | 29415 ft | 459 kts | 52° |
| 2026-05-07 19:34 | 51.95442 | 5.05559 | 29711 ft | 461 kts | 52° |
| 2026-05-07 19:34 | 51.97391 | 5.09707 | 29992 ft | 462 kts | 52° |
| 2026-05-07 19:35 | 51.99349 | 5.13879 | 30238 ft | 464 kts | 52° |
| 2026-05-07 19:35 | 52.01310 | 5.18059 | 30447 ft | 465 kts | 52° |
| 2026-05-07 19:35 | 52.03276 | 5.22251 | 30656 ft | 467 kts | 52° |
| 2026-05-07 19:35 | 52.05250 | 5.26468 | 30859 ft | 468 kts | 52° |
| 2026-05-07 19:36 | 52.07197 | 5.30633 | 31074 ft | 469 kts | 52° |
| 2026-05-07 19:36 | 52.09170 | 5.34859 | 31355 ft | 468 kts | 52° |
| 2026-05-07 19:36 | 52.11136 | 5.39080 | 31631 ft | 468 kts | 52° |
| 2026-05-07 19:36 | 52.13094 | 5.43290 | 31898 ft | 467 kts | 52° |
| 2026-05-07 19:37 | 52.15058 | 5.47518 | 32179 ft | 466 kts | 53° |
| 2026-05-07 19:37 | 52.17013 | 5.51735 | 32475 ft | 465 kts | 53° |
| 2026-05-07 19:37 | 52.18936 | 5.55902 | 32760 ft | 465 kts | 53° |
| 2026-05-07 19:37 | 52.20877 | 5.60117 | 33012 ft | 464 kts | 53° |
| 2026-05-07 19:38 | 52.24728 | 5.68471 | 33082 ft | 456 kts | 53° |
| 2026-05-07 19:38 | 52.28527 | 5.76744 | 33086 ft | 454 kts | 53° |
| 2026-05-07 19:39 | 52.32306 | 5.85015 | 33089 ft | 454 kts | 53° |
| 2026-05-07 19:39 | 52.36078 | 5.93287 | 33089 ft | 454 kts | 53° |
| 2026-05-07 19:40 | 52.39855 | 6.01573 | 33108 ft | 453 kts | 53° |
| 2026-05-07 19:40 | 52.43586 | 6.09809 | 33105 ft | 452 kts | 53° |
| 2026-05-07 19:41 | 52.47341 | 6.18128 | 33099 ft | 452 kts | 53° |
| 2026-05-07 19:41 | 52.51084 | 6.26452 | 33095 ft | 452 kts | 53° |
| 2026-05-07 19:42 | 52.54799 | 6.34728 | 33092 ft | 452 kts | 54° |
| 2026-05-07 19:42 | 52.58522 | 6.43048 | 33091 ft | 451 kts | 54° |
| 2026-05-07 19:43 | 52.62218 | 6.51335 | 33112 ft | 450 kts | 54° |
| 2026-05-07 19:43 | 52.65924 | 6.59653 | 33124 ft | 450 kts | 54° |
| 2026-05-07 19:44 | 52.69611 | 6.67964 | 33103 ft | 449 kts | 54° |
| 2026-05-07 19:44 | 52.73287 | 6.76299 | 33099 ft | 448 kts | 54° |
| 2026-05-07 19:45 | 52.76937 | 6.84572 | 33099 ft | 448 kts | 54° |
| 2026-05-07 19:45 | 52.80607 | 6.92932 | 33104 ft | 448 kts | 54° |
| 2026-05-07 19:46 | 52.84251 | 7.01301 | 33113 ft | 447 kts | 54° |
| 2026-05-07 19:46 | 52.87857 | 7.09602 | 33121 ft | 447 kts | 54° |
| 2026-05-07 19:47 | 52.91488 | 7.17958 | 33109 ft | 446 kts | 54° |
| 2026-05-07 19:47 | 52.95121 | 7.26344 | 33105 ft | 446 kts | 54° |
| 2026-05-07 19:48 | 52.98716 | 7.34688 | 33107 ft | 446 kts | 55° |
| 2026-05-07 19:48 | 53.02328 | 7.43096 | 33107 ft | 446 kts | 55° |
| 2026-05-07 19:49 | 53.05927 | 7.51489 | 33133 ft | 445 kts | 55° |
| 2026-05-07 19:49 | 53.09492 | 7.59821 | 33139 ft | 444 kts | 55° |
| 2026-05-07 19:50 | 53.11282 | 7.64017 | 32984 ft | 444 kts | 55° |
| 2026-05-07 19:50 | 53.13061 | 7.68199 | 32634 ft | 441 kts | 55° |
| 2026-05-07 19:50 | 53.14823 | 7.72344 | 32065 ft | 437 kts | 55° |
| 2026-05-07 19:50 | 53.16575 | 7.76474 | 31502 ft | 434 kts | 55° |
| 2026-05-07 19:51 | 53.18314 | 7.80576 | 30943 ft | 430 kts | 55° |
| 2026-05-07 19:51 | 53.20033 | 7.84643 | 30395 ft | 428 kts | 55° |
| 2026-05-07 19:51 | 53.21721 | 7.88646 | 29803 ft | 425 kts | 55° |
| 2026-05-07 19:51 | 53.23413 | 7.92672 | 29265 ft | 420 kts | 55° |
| 2026-05-07 19:52 | 53.25081 | 7.96648 | 28733 ft | 416 kts | 55° |
| 2026-05-07 19:52 | 53.26731 | 8.00585 | 28207 ft | 412 kts | 55° |
| 2026-05-07 19:52 | 53.28369 | 8.04493 | 27689 ft | 408 kts | 55° |
| 2026-05-07 19:52 | 53.29993 | 8.08368 | 27183 ft | 405 kts | 55° |
| 2026-05-07 19:53 | 53.31580 | 8.12160 | 26692 ft | 401 kts | 55° |
| 2026-05-07 19:53 | 53.33176 | 8.15981 | 26199 ft | 398 kts | 55° |
| 2026-05-07 19:53 | 53.34754 | 8.19768 | 25733 ft | 395 kts | 55° |
| 2026-05-07 19:53 | 53.36323 | 8.23546 | 25272 ft | 392 kts | 55° |
| 2026-05-07 19:54 | 53.37873 | 8.27285 | 24811 ft | 389 kts | 55° |
| 2026-05-07 19:54 | 53.39619 | 8.30733 | 24344 ft | 390 kts | 40° |
| 2026-05-07 19:54 | 53.41925 | 8.33112 | 23680 ft | 391 kts | 20° |
| 2026-05-07 19:54 | 53.44581 | 8.34117 | 22900 ft | 393 kts | 5° |
| 2026-05-07 19:55 | 53.47283 | 8.34536 | 22149 ft | 396 kts | 4° |
| 2026-05-07 19:55 | 53.50048 | 8.34918 | 21408 ft | 399 kts | 4° |
| 2026-05-07 19:55 | 53.52826 | 8.35290 | 20677 ft | 401 kts | 4° |
| 2026-05-07 19:55 | 53.55609 | 8.35658 | 19971 ft | 403 kts | 4° |
| 2026-05-07 19:56 | 53.58417 | 8.36032 | 19280 ft | 404 kts | 4° |
| 2026-05-07 19:56 | 53.61226 | 8.36394 | 18606 ft | 405 kts | 4° |
| 2026-05-07 19:56 | 53.64047 | 8.36758 | 17869 ft | 406 kts | 4° |
| 2026-05-07 19:56 | 53.66833 | 8.37121 | 17123 ft | 407 kts | 4° |
| 2026-05-07 19:57 | 53.69661 | 8.37487 | 16385 ft | 407 kts | 4° |
| 2026-05-07 19:57 | 53.72481 | 8.37869 | 15671 ft | 407 kts | 4° |
| 2026-05-07 19:57 | 53.75297 | 8.38258 | 15037 ft | 405 kts | 4° |
| 2026-05-07 19:57 | 53.78096 | 8.38642 | 14424 ft | 402 kts | 4° |
| 2026-05-07 19:58 | 53.80876 | 8.39034 | 13810 ft | 399 kts | 4° |
| 2026-05-07 19:58 | 53.83639 | 8.39416 | 13134 ft | 396 kts | 4° |
| 2026-05-07 19:58 | 53.86380 | 8.39780 | 12480 ft | 393 kts | 4° |
| 2026-05-07 19:58 | 53.89096 | 8.40133 | 11833 ft | 389 kts | 4° |
| 2026-05-07 19:59 | 53.91742 | 8.40465 | 11287 ft | 383 kts | 4° |
| 2026-05-07 19:59 | 53.94346 | 8.40784 | 11103 ft | 366 kts | 4° |
| 2026-05-07 19:59 | 53.96819 | 8.41089 | 11117 ft | 346 kts | 4° |
| 2026-05-07 19:59 | 53.99159 | 8.41376 | 11123 ft | 328 kts | 4° |
| 2026-05-07 20:00 | 54.01367 | 8.41986 | 11125 ft | 320 kts | 18° |
| 2026-05-07 20:00 | 54.03326 | 8.43730 | 11128 ft | 319 kts | 38° |
| 2026-05-07 20:00 | 54.04801 | 8.46510 | 11119 ft | 318 kts | 59° |
| 2026-05-07 20:00 | 54.05608 | 8.50004 | 11121 ft | 318 kts | 80° |
| 2026-05-07 20:01 | 54.05657 | 8.53742 | 11120 ft | 318 kts | 99° |
| 2026-05-07 20:01 | 54.04962 | 8.57288 | 11119 ft | 317 kts | 117° |
| 2026-05-07 20:01 | 54.03944 | 8.60641 | 11118 ft | 318 kts | 117° |
| 2026-05-07 20:01 | 54.02923 | 8.63994 | 11072 ft | 319 kts | 117° |
| 2026-05-07 20:02 | 54.01916 | 8.67288 | 10816 ft | 317 kts | 117° |
| 2026-05-07 20:02 | 54.00897 | 8.70606 | 10566 ft | 315 kts | 117° |
| 2026-05-07 20:02 | 53.99886 | 8.73904 | 10325 ft | 314 kts | 117° |
| 2026-05-07 20:02 | 53.98880 | 8.77188 | 10143 ft | 312 kts | 117° |
| 2026-05-07 20:03 | 53.97901 | 8.80391 | 10108 ft | 297 kts | 117° |
| 2026-05-07 20:03 | 53.96960 | 8.83465 | 10113 ft | 289 kts | 117° |
| 2026-05-07 20:03 | 53.96031 | 8.86494 | 10115 ft | 288 kts | 117° |
| 2026-05-07 20:03 | 53.95115 | 8.89473 | 10117 ft | 288 kts | 117° |
| 2026-05-07 20:04 | 53.94184 | 8.92491 | 10117 ft | 288 kts | 117° |
| 2026-05-07 20:04 | 53.93254 | 8.95501 | 10118 ft | 288 kts | 117° |
| 2026-05-07 20:04 | 53.92325 | 8.98515 | 10114 ft | 287 kts | 117° |
| 2026-05-07 20:04 | 53.91393 | 9.01530 | 10115 ft | 287 kts | 117° |
| 2026-05-07 20:05 | 53.90476 | 9.04489 | 10116 ft | 287 kts | 118° |
| 2026-05-07 20:05 | 53.89555 | 9.07455 | 10116 ft | 287 kts | 118° |
| 2026-05-07 20:05 | 53.88638 | 9.10409 | 10119 ft | 287 kts | 118° |
| 2026-05-07 20:05 | 53.87705 | 9.13411 | 10119 ft | 287 kts | 118° |
| 2026-05-07 20:06 | 53.86773 | 9.16404 | 10119 ft | 286 kts | 118° |
| 2026-05-07 20:06 | 53.85843 | 9.19389 | 10118 ft | 286 kts | 118° |
| 2026-05-07 20:06 | 53.85226 | 9.21368 | 10123 ft | 286 kts | 118° |
| 2026-05-07 20:06 | 53.83993 | 9.25318 | 10117 ft | 286 kts | 118° |
| 2026-05-07 20:07 | 53.83055 | 9.28308 | 10116 ft | 286 kts | 118° |
| 2026-05-07 20:07 | 53.82122 | 9.31285 | 10123 ft | 287 kts | 118° |
| 2026-05-07 20:07 | 53.81503 | 9.33259 | 10120 ft | 286 kts | 118° |
| 2026-05-07 20:07 | 53.80446 | 9.36098 | 10119 ft | 286 kts | 124° |
| 2026-05-07 20:08 | 53.79137 | 9.39395 | 10116 ft | 286 kts | 124° |
| 2026-05-07 20:08 | 53.74825 | 9.46454 | 10122 ft | 286 kts | 169° |
| 2026-05-07 20:09 | 53.72876 | 9.46407 | 10124 ft | 281 kts | 194° |
| 2026-05-07 20:09 | 53.71130 | 9.45077 | 9858 ft | 276 kts | 210° |
| 2026-05-07 20:09 | 53.69393 | 9.43897 | 9581 ft | 261 kts | 188° |
| 2026-05-07 20:10 | 53.65965 | 9.44623 | 9113 ft | 250 kts | 165° |
| 2026-05-07 20:10 | 53.64276 | 9.45334 | 8947 ft | 250 kts | 165° |
| 2026-05-07 20:10 | 53.62585 | 9.46013 | 8773 ft | 249 kts | 165° |
| 2026-05-07 20:10 | 53.60905 | 9.46725 | 8611 ft | 249 kts | 160° |
| 2026-05-07 20:11 | 53.59308 | 9.47811 | 8302 ft | 246 kts | 155° |
| 2026-05-07 20:11 | 53.57766 | 9.48979 | 7943 ft | 245 kts | 154° |
| 2026-05-07 20:11 | 53.56202 | 9.50176 | 7406 ft | 247 kts | 154° |
| 2026-05-07 20:11 | 53.54642 | 9.51361 | 6857 ft | 245 kts | 154° |
| 2026-05-07 20:12 | 53.53097 | 9.52523 | 6331 ft | 242 kts | 154° |
| 2026-05-07 20:12 | 53.51569 | 9.53685 | 5818 ft | 239 kts | 149° |
| 2026-05-07 20:12 | 53.50256 | 9.55333 | 5323 ft | 233 kts | 136° |
| 2026-05-07 20:12 | 53.49079 | 9.57177 | 4854 ft | 229 kts | 134° |
| 2026-05-07 20:13 | 53.47952 | 9.58989 | 4532 ft | 219 kts | 134° |
| 2026-05-07 20:13 | 53.47106 | 9.60974 | 4220 ft | 207 kts | 112° |
| 2026-05-07 20:13 | 53.46767 | 9.63262 | 3906 ft | 198 kts | 92° |
| 2026-05-07 20:13 | 53.46908 | 9.65500 | 3640 ft | 189 kts | 75° |
| 2026-05-07 20:14 | 53.47450 | 9.67452 | 3319 ft | 182 kts | 57° |
| 2026-05-07 20:14 | 53.47974 | 9.68547 | 3121 ft | 181 kts | 52° |
| 2026-05-07 20:14 | 53.49029 | 9.70654 | 3009 ft | 172 kts | 52° |
| 2026-05-07 20:14 | 53.49548 | 9.71692 | 3009 ft | 171 kts | 52° |
| 2026-05-07 20:15 | 53.50295 | 9.73187 | 3007 ft | 170 kts | 52° |
| 2026-05-07 20:15 | 53.51052 | 9.74703 | 3009 ft | 169 kts | 53° |
| 2026-05-07 20:15 | 53.51809 | 9.76220 | 3010 ft | 169 kts | 52° |
| 2026-05-07 20:15 | 53.52564 | 9.77733 | 2916 ft | 168 kts | 52° |
| 2026-05-07 20:16 | 53.53318 | 9.79245 | 2744 ft | 168 kts | 53° |
| 2026-05-07 20:16 | 53.54069 | 9.80753 | 2526 ft | 168 kts | 53° |
| 2026-05-07 20:16 | 53.54815 | 9.82250 | 2298 ft | 167 kts | 52° |
| 2026-05-07 20:16 | 53.55549 | 9.83725 | 2069 ft | 166 kts | 52° |
| 2026-05-07 20:17 | 53.56299 | 9.85233 | 1846 ft | 166 kts | 52° |
| 2026-05-07 20:17 | 53.57041 | 9.86727 | 1620 ft | 170 kts | 52° |
| 2026-05-07 20:17 | 53.57758 | 9.88167 | 1415 ft | 151 kts | 52° |
| 2026-05-07 20:17 | 53.58406 | 9.89471 | 1193 ft | 141 kts | 52° |
| 2026-05-07 20:18 | 53.59018 | 9.90704 | 1005 ft | 134 kts | 52° |
| 2026-05-07 20:18 | 53.59608 | 9.91894 | 820 ft | 132 kts | 51° |
| 2026-05-07 20:18 | 53.60193 | 9.93096 | 635 ft | 133 kts | 52° |
| 2026-05-07 20:18 | 53.60785 | 9.94298 | 471 ft | 135 kts | 50° |
| 2026-05-07 20:19 | 53.61386 | 9.95503 | 279 ft | 134 kts | 50° |
| 2026-05-07 20:19 | 53.61982 | 9.96684 | 98 ft | 131 kts | 50° |
| 2026-05-07 20:19 | 53.62519 | 9.97770 | 41 ft | 94 kts | 51° |
| 2026-05-07 20:19 | 53.62760 | 9.98266 | 43 ft | 31 kts | 52° |
| 2026-05-07 20:20 | 53.62755 | 9.98350 | 42 ft | 7 kts | 150° |
| 2026-05-07 20:20 | 53.62694 | 9.98428 | 46 ft | 11 kts | 139° |
| 2026-05-07 20:20 | 53.62675 | 9.98516 | 47 ft | 6 kts | 62° |
| 2026-05-07 20:20 | 53.62727 | 9.98625 | 47 ft | 26 kts | 51° |
| 2026-05-07 20:21 | 53.62828 | 9.98832 | 47 ft | 22 kts | 51° |
| 2026-05-07 20:21 | 53.62929 | 9.99036 | 47 ft | 23 kts | 49° |
| 2026-05-07 20:21 | 53.63034 | 9.99248 | 47 ft | 24 kts | 51° |
| 2026-05-07 20:21 | 53.63133 | 9.99483 | 46 ft | 25 kts | 57° |
| 2026-05-07 20:22 | 53.63223 | 9.99697 | 48 ft | 18 kts | 81° |
| 2026-05-07 20:22 | 53.63139 | 9.99831 | 47 ft | 18 kts | 151° |
| 2026-05-07 20:22 | 53.63022 | 9.99938 | 48 ft | 20 kts | 153° |
| 2026-05-07 20:22 | 53.62893 | 10.00038 | 48 ft | 21 kts | 168° |
| 2026-05-07 20:23 | 53.62758 | 10.00147 | 48 ft | 22 kts | 151° |
| 2026-05-07 20:23 | 53.62720 | 10.00244 | 48 ft | 8 kts | 70° |
| 2026-05-07 20:23 | 53.62737 | 10.00302 | 48 ft | 2 kts | 62° |
| 2026-05-07 20:23 | 53.62739 | 10.00307 | 48 ft | 0 kts | 62° |